Aptos, CA (95003)

1:50 PM PDT on July 29, 2016 (GMT -0700)
Rio del Mar, Beckett PC Solutions | | Change Station

Elev 120 ft 36.97 °N, 121.89 °W | Updated 25 seconds ago

Clear
Clear
57.5 °F
Feels Like 57.5 °F
N
5.0
Wind Variable Wind from SSW
Gusts 7.0 mph

Today
High -- | Low -- °F
--% Chance of Precip.
Yesterday
High -- | Low -- °F
Precip. -- in
Pressure 29.87 in
Visibility 10.0 miles
Clouds Clear
Dew Point 55 °F
Humidity 92%
Rainfall 0.00 in
Snow Depth Not available.
6:10 AM 8:16 PM
Waning Crescent, 19% visible
METAR KWVI 291953Z AUTO 18009KT 10SM CLR 22/13 A2987 RMK AO2 SLP113 T02170128
Pressure 29.87 in
Visibility 10.0 miles
Clouds Clear
Dew Point 55 °F
Humidity 92%
Rainfall 0.00 in
Snow Depth Not available.
6:10 AM 8:16 PM
Waning Crescent, 19% visible
METAR KWVI 291953Z AUTO 18009KT 10SM CLR 22/13 A2987 RMK AO2 SLP113 T02170128

10-Day Weather Forecast

Almanac

Astronomy

Jul. 29, 2016 Rise Set
Actual Time
Civil Twilight
Nautical Twilight
Astronomical Twilight
Moon
Length of Visible Light
Length of Day
Tomorrow will be .
, % of the Moon is Illuminated

Today's Extremes

State Highs State Lows

Community

WunderPhotos

Upload Photos

1,928,411 photos uploaded!

WunderBlog® & News

Nearby

Air Quality

  Air Quality AQ Index Pollutant
Not available.

Snow Depth

Station Depth Elevation

Earthquake Activity

City Distance Mag. Time & Date
Minimum magnitude displayed is 2.5.

Coastal Water Temperatures

Place Temperature

Stations

Nearby Weather Stations

Station Location Temp. Windchill Dew Point Humidity Wind Precip. Elev Updated Type
                   

Watches & Warnings

There are currently no watches in effect.